Historyczne dane pomiarowe

Dodano dane terminowe – wersja testowa.

Dane z okresu 1951-2019

Wersja bazy: 1.34 [2019-03-16, lista zmian], aktualizacja planowana na 2019-04-15

Dane meteo z obszaru Polski uzyskane na podstawie danych udostępnionych przez Instytut Meteorologii i Gospodarki Wodnej – Państwowy Instytut Badawczy.

 

Wybierz Datę:    

       

TemperaturaWilgotnośćWiatrCiśnienieOpadyŚniegCzas trwania zjawisk
 Stacja t tx tn tng RH VA  wxwx mslp ppp RRR   cm mm wxwxwxwxwxwxwx
1999-08-14 15.7 22.6 8.0 3.5 62.0- 2.0 0.0---- 0.0------------
1999-08-13 15.5 20.6 12.0 9.1 66.5- 6.3 0.3---- 0.0------------
1999-08-12 16.3 19.6 14.0 12.7 75.3- 7.3 0.7---- 0.0------------
1999-08-11 19.1 24.9 15.6 11.8 73.8- 6.0 0.7---- 3.3------------
1999-08-10 19.3 21.8 14.9 11.6 82.5- 7.7 1.3---- 2.5------------
1999-08-09 23.3 28.7 20.0 16.6 67.0- 4.3 0.7---- 1.0------------
1999-08-08 22.7 30.1 14.0 9.8 68.8- 2.7 0.0---- 0.0------------
1999-08-07 20.9 30.7 13.3 10.0 64.3- 5.0 0.3---- 3.7------------
1999-08-06 19.6 27.4 14.0 10.2 75.8- 5.3 0.7---- 0.4------------
1999-08-05 17.9 27.0 8.3 4.9 69.5- 5.3 0.3---- 0.2------------
1999-08-04 17.3 26.5 8.2 4.5 69.0- 3.0 0.0---- 0.0------------
1999-08-03 17.0 25.7 8.7 4.3 71.5- 5.0 0.0---- 0.0------------
1999-08-02 18.0 25.3 9.6 5.9 67.8- 5.0 0.3---- 0.0------------
1999-08-01 18.8 26.7 9.8 6.7 59.5- 4.0 0.3---- 0.0------------
1999-07-31 18.2 25.9 8.6 8.3 62.8- 3.7 0.0---- 0.0------------
1999-07-30 17.3 25.2 9.5 5.5 57.5- 1.7 0.0---- 0.0------------
1999-07-29 18.6 24.3 11.6 7.4 64.8- 4.3 1.0---- 0.0------------
1999-07-28 19.2 24.5 12.9 9.1 58.3- 2.0 0.7---- 0.0------------
1999-07-27 19.0 23.9 15.6 15.6 72.3- 6.0 0.3---- 0.0------------
1999-07-26 19.8 27.7 10.3 7.1 62.5- 2.3 0.3---- 0.0------------
1999-07-25 17.1 25.1 7.7 4.4 70.8- 1.0 0.3---- 0.0------------
1999-07-24 17.5 21.0 14.0 11.8 69.0- 5.7 0.0---- 0.0------------
1999-07-23 16.4 22.2 12.9 11.7 72.5- 8.0 0.0---- 0.0------------
1999-07-22 19.0 23.8 15.2 13.3 59.0- 6.7 0.7---- 0.0------------
1999-07-21 22.4 27.8 16.1 14.1 64.5- 3.7 0.3---- 3.5------------
1999-07-20 21.1 30.9 12.4 9.8 65.8- 2.7 1.0---- 1.0------------
1999-07-19 20.7 29.1 10.4 7.6 64.5- 2.3 0.0---- 0.0------------
1999-07-18 19.5 27.7 9.9 7.4 65.0- 1.0 0.0---- 0.0------------
1999-07-17 17.4 24.7 10.6 6.9 72.8- 0.0 0.0---- 0.0------------
1999-07-16 16.4 21.4 10.2 7.2 72.0- 5.0 0.3---- 0.0------------
1999-07-15 16.6 18.7 14.1 11.1 72.5- 7.0 1.3---- 1.9------------
1999-07-14 20.9 26.1 17.2 14.7 74.0- 6.7 0.7---- 2.3------------
1999-07-13 20.2 27.2 15.5 13.0 80.3- 5.0 0.7---- 0.0------------
1999-07-12 21.0 27.2 16.5 14.3 84.8- 7.0 0.0---- 1.3------------
1999-07-11 19.5 22.6 16.5 15.5 84.8- 7.3 0.0---- 3.5------------
1999-07-10 21.0 24.3 17.5 17.1 70.3- 6.3 1.3---- 0.0------------
1999-07-09 17.7 19.7 14.9 14.6 93.5- 8.0 0.0---- 0.0------------
1999-07-08 15.6 17.5 14.9 14.8 95.0- 8.0 0.7---- 8.9------------
1999-07-07 19.0 22.8 16.5 16.5 86.0- 7.7 1.0---- 24.0------------
1999-07-06 23.5 32.0 16.5 14.4 73.8- 3.7 0.0---- 22.4------------
1999-07-05 25.2 30.9 15.9 13.4 50.3- 1.3 1.0---- 0.0------------
1999-07-04 23.0 31.5 12.0 9.1 65.8- 0.7 0.0---- 0.0------------
1999-07-03 19.8 25.9 12.5 8.8 73.5- 0.0 0.3---- 0.0------------
1999-07-02 19.0 24.2 14.3 12.2 75.8- 6.3 0.0---- 1.0------------
1999-07-01 19.5 23.7 14.4 11.8 79.0- 6.7 0.3---- 1.1------------
1999-06-30 19.8 26.0 13.0 12.4 73.5- 3.7 0.0---- 0.0------------
1999-06-29 18.3 25.9 11.6 8.9 69.8- 2.7 0.0---- 0.0------------
1999-06-28 20.2 26.0 16.2 15.5 82.5- 5.7 0.0---- 5.4------------
1999-06-27 20.0 25.6 15.5 11.6 57.3- 7.3 0.0---- 4.4------------
1999-06-26 17.3 23.6 10.0 9.7 75.0- 4.7 0.7---- 0.0------------
1999-06-25 13.0 19.6 6.6 3.0 79.0- 6.0 0.0---- 12.1------------
1999-06-24 11.5 17.0 4.5 1.0 81.3- 5.7 0.0---- 0.7------------
1999-06-23 13.2 17.7 9.1 7.6 73.0- 7.3 1.3---- 0.0------------
1999-06-22 10.8 17.1 8.0 7.5 93.0- 8.0 1.7---- 21.9------------
1999-06-21 16.4 21.6 12.0 10.8 77.0- 7.3 0.3---- 20.7------------
1999-06-20 17.3 22.5 9.9 7.4 79.5- 7.3 0.3---- 0.0------------
1999-06-19 15.2 18.5 12.0 11.7 90.0- 8.0 0.0---- 0.1------------
1999-06-18 16.2 20.6 13.5 10.4 92.0- 8.0 0.3---- 18.3------------
1999-06-17 17.7 22.5 11.4 10.5 83.5- 6.3 0.0---- 0.0------------
1999-06-16 16.5 20.0 14.5 14.3 87.3- 8.0 0.0---- 0.0------------
364.9 ms

 

Źródłem pochodzenia danych jest Instytut Meteorologii i Gospodarki Wodnej – Państwowy Instytut Badawczy. Dane Instytutu Meteorologii i Gospodarki Wodnej – Państwowego Instytutu Badawczego zostały przetworzone.

Dane źródłowe można odnaleźć na stronie https://dane.imgw.pl